Time;durP1;ratioP1;P1;durP2;ratioP2;P2;SDS_P1;SDS_P2;PMS_P1;PMS_P2;Temp;Humidity;BMP_temperature;BMP_pressure;BME280_temperature;BME280_humidity;BME280_pressure;Samples;Min_cycle;Max_cycle;Signal;HPM_P1;HPM_P2
2022/01/05 00:02:11;;;;;;;5.35;1.30;;;15.00;78.40;;;;;;4109299;28;20097;-66
2022/01/05 00:04:34;;;;;;;6.22;1.00;;;15.00;78.60;;;;;;4115476;28;20685;-67
2022/01/05 00:06:58;;;;;;;5.90;1.40;;;15.00;78.80;;;;;;4127578;28;20070;-66
2022/01/05 00:09:22;;;;;;;4.20;1.17;;;15.10;79.10;;;;;;4125555;28;20078;-66
2022/01/05 00:11:46;;;;;;;6.72;1.20;;;15.20;79.20;;;;;;4122453;28;20054;-66
2022/01/05 00:14:09;;;;;;;4.15;0.95;;;15.30;78.50;;;;;;4111904;28;20106;-66
2022/01/05 00:16:32;;;;;;;11.35;1.63;;;15.40;77.60;;;;;;4126964;28;20469;-66
2022/01/05 00:18:55;;;;;;;6.75;1.20;;;15.50;77.20;;;;;;4127012;28;20046;-67
2022/01/05 00:21:18;;;;;;;7.40;1.40;;;15.50;77.30;;;;;;4125294;28;20046;-67
2022/01/05 00:23:42;;;;;;;7.78;1.65;;;15.60;77.10;;;;;;4127428;28;20104;-68
2022/01/05 00:26:06;;;;;;;5.75;1.30;;;15.60;76.80;;;;;;4127653;28;20046;-67
2022/01/05 00:28:29;;;;;;;4.65;0.98;;;15.60;76.40;;;;;;4104283;28;20051;-67
2022/01/05 00:30:52;;;;;;;7.45;1.90;;;15.60;76.10;;;;;;4111301;28;20160;-67
2022/01/05 00:33:17;;;;;;;4.10;1.20;;;15.60;75.90;;;;;;4111303;28;20420;-66
2022/01/05 00:35:40;;;;;;;7.78;2.05;;;15.50;76.20;;;;;;4112222;28;20101;-67
2022/01/05 00:38:03;;;;;;;9.82;1.55;;;15.50;76.40;;;;;;4110896;28;20074;-65
2022/01/05 00:40:26;;;;;;;4.78;1.23;;;15.50;76.30;;;;;;4110892;28;20063;-66
2022/01/05 00:42:52;;;;;;;9.50;1.60;;;15.50;76.70;;;;;;4111071;28;20042;-65
2022/01/05 00:45:16;;;;;;;4.82;1.17;;;15.50;76.60;;;;;;4111641;28;20054;-65
2022/01/05 00:47:39;;;;;;;7.20;1.60;;;15.50;77.40;;;;;;4111265;28;20109;-65
2022/01/05 00:50:03;;;;;;;5.05;1.65;;;15.50;77.20;;;;;;4109057;28;20059;-65
2022/01/05 00:52:26;;;;;;;5.57;1.45;;;15.50;76.80;;;;;;4108438;28;20117;-65
2022/01/05 00:54:48;;;;;;;5.15;1.35;;;15.60;76.50;;;;;;4120484;28;20046;-65
2022/01/05 00:57:12;;;;;;;4.78;1.48;;;15.60;76.60;;;;;;4124303;28;20130;-65
2022/01/05 00:59:36;;;;;;;4.38;1.50;;;15.60;76.70;;;;;;4110815;28;20098;-65
2022/01/05 01:02:00;;;;;;;8.75;1.60;;;15.70;76.30;;;;;;4111130;28;20050;-65
2022/01/05 01:04:24;;;;;;;5.70;1.70;;;15.80;75.80;;;;;;4117493;28;20448;-66
2022/01/05 01:06:50;;;;;;;4.00;1.77;;;15.90;75.10;;;;;;4138939;28;20096;-66
2022/01/05 01:09:14;;;;;;;3.30;1.42;;;15.90;75.10;;;;;;4126231;28;20054;-65
2022/01/05 01:11:37;;;;;;;6.45;1.50;;;15.90;74.90;;;;;;4117581;28;20492;-65
2022/01/05 01:14:00;;;;;;;5.00;1.25;;;16.00;74.70;;;;;;4115256;28;20073;-65
2022/01/05 01:16:24;;;;;;;9.35;1.73;;;16.00;74.10;;;;;;4126521;28;20124;-65
2022/01/05 01:18:48;;;;;;;4.38;1.35;;;16.00;74.30;;;;;;4126026;28;20467;-65
2022/01/05 01:21:11;;;;;;;9.40;2.00;;;16.00;74.30;;;;;;4126518;28;20549;-65
2022/01/05 01:23:34;;;;;;;8.00;1.15;;;15.90;74.00;;;;;;4110490;28;20050;-65
2022/01/05 01:25:57;;;;;;;6.30;1.40;;;15.90;74.40;;;;;;4110406;28;20043;-65
2022/01/05 01:28:21;;;;;;;7.05;1.60;;;15.80;74.80;;;;;;4123105;28;20050;-65
2022/01/05 01:30:45;;;;;;;8.73;2.13;;;15.80;75.10;;;;;;4126618;28;20085;-65
2022/01/05 01:33:10;;;;;;;11.43;2.45;;;15.80;75.00;;;;;;4113809;28;20109;-65
2022/01/05 01:35:33;;;;;;;12.15;1.55;;;15.80;74.70;;;;;;4109925;28;20055;-65
2022/01/05 01:37:57;;;;;;;6.03;1.73;;;15.80;74.80;;;;;;4109808;28;20101;-65
2022/01/05 01:40:19;;;;;;;11.30;2.13;;;15.80;74.60;;;;;;4110459;28;20051;-65
2022/01/05 01:42:43;;;;;;;6.55;2.42;;;15.80;74.80;;;;;;4110297;28;20051;-65
2022/01/05 01:45:07;;;;;;;8.98;1.98;;;15.80;75.70;;;;;;4111839;28;20070;-65
2022/01/05 01:47:30;;;;;;;5.97;1.75;;;15.80;74.80;;;;;;4126340;28;20086;-65
2022/01/05 01:49:54;;;;;;;12.52;2.38;;;15.80;74.60;;;;;;4126682;28;20116;-65
2022/01/05 01:52:17;;;;;;;6.47;1.63;;;15.90;74.10;;;;;;4124269;28;20054;-65
2022/01/05 01:54:40;;;;;;;8.32;2.20;;;15.90;73.90;;;;;;4125940;28;20097;-64
2022/01/05 01:57:04;;;;;;;9.18;2.10;;;15.90;73.90;;;;;;4117026;28;20443;-65
2022/01/05 01:59:28;;;;;;;7.95;1.50;;;15.90;74.00;;;;;;4108447;28;20805;-65
2022/01/05 02:01:51;;;;;;;8.10;1.98;;;15.80;74.20;;;;;;4111183;28;20050;-65
2022/01/05 02:04:15;;;;;;;16.30;2.70;;;15.80;74.10;;;;;;4125749;28;20109;-65
2022/01/05 02:06:39;;;;;;;9.15;2.05;;;15.80;74.20;;;;;;4124263;28;20100;-65
2022/01/05 02:09:04;;;;;;;10.18;1.98;;;15.80;73.80;;;;;;4125975;28;20169;-65
2022/01/05 02:11:27;;;;;;;9.15;1.70;;;15.80;74.00;;;;;;4112119;28;20088;-65
2022/01/05 02:13:50;;;;;;;7.10;2.15;;;15.80;74.00;;;;;;4108574;28;20142;-65
2022/01/05 02:16:18;;;;;;;8.60;2.22;;;15.90;73.90;;;;;;4098132;28;20051;-65
2022/01/05 02:18:59;;;;;;;6.18;1.60;;;15.90;73.30;;;;;;4109720;28;20054;-65
2022/01/05 02:21:24;;;;;;;8.20;1.77;;;15.90;73.50;;;;;;4108913;28;20106;-65
2022/01/05 02:23:47;;;;;;;8.93;2.03;;;15.90;73.70;;;;;;4109749;28;20039;-65
2022/01/05 02:26:11;;;;;;;6.60;2.00;;;15.90;73.60;;;;;;4111548;28;20089;-65
2022/01/05 02:28:34;;;;;;;6.03;1.63;;;15.90;73.20;;;;;;4124945;28;20113;-65
2022/01/05 02:30:57;;;;;;;7.25;2.65;;;16.00;73.10;;;;;;4093919;28;20070;-65
2022/01/05 02:33:21;;;;;;;11.52;2.58;;;16.00;72.80;;;;;;4093273;28;20102;-65
2022/01/05 02:35:44;;;;;;;6.65;1.95;;;16.00;72.90;;;;;;4096146;28;20448;-65
2022/01/05 02:38:08;;;;;;;8.02;1.50;;;16.00;72.90;;;;;;4111954;28;20101;-65
2022/01/05 02:40:31;;;;;;;8.80;1.90;;;16.10;72.50;;;;;;4125343;28;20100;-64
2022/01/05 02:42:56;;;;;;;10.35;1.92;;;16.20;72.00;;;;;;4121704;28;20105;-65
2022/01/05 02:45:18;;;;;;;11.68;1.90;;;16.30;72.30;;;;;;4109999;28;20051;-64
2022/01/05 02:47:42;;;;;;;10.13;1.95;;;16.40;70.80;;;;;;4110945;28;20113;-65
2022/01/05 02:50:07;;;;;;;7.38;1.88;;;16.40;70.70;;;;;;4109663;28;20051;-64
2022/01/05 02:52:29;;;;;;;8.75;2.03;;;16.30;70.90;;;;;;4093478;28;20051;-65
2022/01/05 02:54:54;;;;;;;12.52;2.28;;;16.20;70.90;;;;;;4093506;28;20090;-64
2022/01/05 02:57:17;;;;;;;9.70;2.08;;;16.20;71.10;;;;;;4105180;28;20063;-64
2022/01/05 02:59:40;;;;;;;14.27;2.60;;;16.10;71.30;;;;;;4109354;28;20104;-65
2022/01/05 03:02:04;;;;;;;8.68;2.40;;;16.10;71.30;;;;;;4109349;28;20558;-64
2022/01/05 03:04:27;;;;;;;9.40;2.28;;;16.10;71.50;;;;;;4108992;28;20054;-65
2022/01/05 03:06:50;;;;;;;8.20;1.83;;;16.00;71.90;;;;;;4118162;28;20112;-64
2022/01/05 03:09:13;;;;;;;10.02;1.90;;;16.10;72.70;;;;;;4122069;28;20055;-65
2022/01/05 03:11:38;;;;;;;10.30;2.05;;;16.10;71.70;;;;;;4108227;28;20098;-65
2022/01/05 03:14:01;;;;;;;8.07;1.60;;;16.00;71.40;;;;;;4109556;28;20101;-65
2022/01/05 03:16:24;;;;;;;7.07;1.70;;;16.00;72.60;;;;;;4117762;28;20553;-65
2022/01/05 03:18:47;;;;;;;8.23;2.05;;;15.90;72.00;;;;;;4128324;28;20124;-65
2022/01/05 03:21:10;;;;;;;5.38;1.85;;;15.90;71.90;;;;;;4128645;28;20050;-65
2022/01/05 03:23:33;;;;;;;7.70;1.50;;;16.00;71.90;;;;;;4128035;28;20433;-65
2022/01/05 03:25:56;;;;;;;8.55;1.70;;;16.00;71.70;;;;;;4120187;28;20499;-66
2022/01/05 03:28:20;;;;;;;8.07;2.13;;;16.00;71.80;;;;;;4111893;28;20112;-65
2022/01/05 03:30:43;;;;;;;11.35;2.42;;;16.10;71.50;;;;;;4112275;28;20113;-65
2022/01/05 03:33:11;;;;;;;7.65;1.98;;;16.10;71.30;;;;;;4111985;28;20105;-65
2022/01/05 03:35:37;;;;;;;10.23;2.42;;;16.30;70.80;;;;;;4112896;28;20462;-66
2022/01/05 03:38:00;;;;;;;8.10;2.15;;;16.30;70.20;;;;;;4128002;28;20484;-65
2022/01/05 03:40:24;;;;;;;8.52;1.77;;;16.30;70.10;;;;;;4127616;28;20143;-65
2022/01/05 03:42:46;;;;;;;11.27;1.95;;;16.30;69.90;;;;;;4110941;28;20447;-65
2022/01/05 03:45:11;;;;;;;7.55;1.88;;;16.30;69.90;;;;;;4112314;28;20132;-65
2022/01/05 03:47:34;;;;;;;9.73;2.25;;;16.20;70.10;;;;;;4128008;28;20050;-65
2022/01/05 03:49:57;;;;;;;11.60;1.65;;;16.20;70.50;;;;;;4127037;28;20046;-65
2022/01/05 03:52:20;;;;;;;6.65;1.58;;;16.20;70.50;;;;;;4128036;28;20046;-65
2022/01/05 03:54:43;;;;;;;5.18;1.30;;;16.20;70.50;;;;;;4124897;28;20101;-65
2022/01/05 03:57:06;;;;;;;9.77;1.70;;;16.20;70.50;;;;;;4124941;28;20442;-65
2022/01/05 03:59:29;;;;;;;8.80;2.28;;;16.20;70.50;;;;;;4127774;28;20471;-65
2022/01/05 04:01:53;;;;;;;5.55;1.30;;;16.20;70.60;;;;;;4127659;28;20050;-65
2022/01/05 04:04:16;;;;;;;9.18;1.60;;;16.20;70.50;;;;;;4127813;28;20516;-66
2022/01/05 04:06:40;;;;;;;10.65;1.92;;;16.20;70.50;;;;;;4111566;28;20105;-65
2022/01/05 04:09:02;;;;;;;8.85;2.13;;;16.10;70.30;;;;;;4119219;28;20112;-67
2022/01/05 04:11:25;;;;;;;9.07;1.73;;;16.10;70.40;;;;;;4127854;28;20453;-65
2022/01/05 04:13:48;;;;;;;7.35;1.90;;;16.10;70.60;;;;;;4126799;28;20054;-65
2022/01/05 04:16:11;;;;;;;9.15;1.83;;;16.10;70.40;;;;;;4116797;28;20055;-65
2022/01/05 04:18:36;;;;;;;8.68;2.08;;;16.10;70.50;;;;;;4111352;28;20047;-65
2022/01/05 04:20:59;;;;;;;10.80;1.88;;;16.20;70.30;;;;;;4111325;28;20047;-65
2022/01/05 04:23:21;;;;;;;6.88;1.67;;;16.40;69.70;;;;;;4111226;28;20094;-66
2022/01/05 04:25:44;;;;;;;5.93;1.40;;;16.50;69.00;;;;;;4116309;28;20074;-65
2022/01/05 04:28:08;;;;;;;8.30;1.83;;;16.50;68.60;;;;;;4111000;28;20151;-65
2022/01/05 04:30:31;;;;;;;11.13;1.90;;;16.50;68.60;;;;;;4111391;28;20047;-66
2022/01/05 04:32:54;;;;;;;7.03;1.40;;;16.50;68.20;;;;;;4111198;28;20054;-65
2022/01/05 04:35:38;;;;;;;4.53;1.73;;;16.40;69.50;;;;;;4118166;28;20062;-64
2022/01/05 04:38:02;;;;;;;5.78;1.27;;;16.30;68.80;;;;;;4127034;28;20544;-65
2022/01/05 04:40:25;;;;;;;6.90;1.80;;;16.30;69.20;;;;;;4124227;28;20062;-65
2022/01/05 04:42:48;;;;;;;6.80;1.48;;;16.20;69.40;;;;;;4127385;28;20105;-65
2022/01/05 04:45:11;;;;;;;4.85;1.65;;;16.10;69.50;;;;;;4120621;28;20054;-65
2022/01/05 04:47:34;;;;;;;3.78;1.58;;;16.00;69.50;;;;;;4111061;28;20121;-65
2022/01/05 04:49:58;;;;;;;6.82;1.30;;;16.00;70.10;;;;;;4110398;28;20491;-65
2022/01/05 04:52:22;;;;;;;5.88;1.58;;;15.90;70.60;;;;;;4110765;28;20455;-65
2022/01/05 04:54:46;;;;;;;5.07;1.60;;;15.80;70.80;;;;;;4117351;28;20179;-65
2022/01/05 04:57:09;;;;;;;4.63;1.40;;;15.80;71.30;;;;;;4111084;28;20051;-65
2022/01/05 04:59:32;;;;;;;5.13;1.27;;;15.80;71.50;;;;;;4111085;28;20106;-65
2022/01/05 05:01:55;;;;;;;6.13;1.77;;;15.80;71.00;;;;;;4110916;28;20039;-65
2022/01/05 05:04:19;;;;;;;4.72;1.30;;;15.90;70.60;;;;;;4110878;28;20054;-65
2022/01/05 05:06:42;;;;;;;4.20;1.55;;;16.00;70.60;;;;;;4111795;28;20106;-65
2022/01/05 05:09:06;;;;;;;5.07;1.40;;;16.00;70.30;;;;;;4111272;28;20047;-65
2022/01/05 05:11:29;;;;;;;5.10;1.42;;;16.10;70.30;;;;;;4110720;28;20105;-65
2022/01/05 05:13:52;;;;;;;5.82;1.20;;;16.20;70.00;;;;;;4110849;28;20058;-65
2022/01/05 05:16:16;;;;;;;8.13;1.50;;;16.30;69.30;;;;;;4110643;28;20050;-65
2022/01/05 05:18:39;;;;;;;7.18;1.60;;;16.40;68.80;;;;;;4110758;28;20047;-65
2022/01/05 05:21:02;;;;;;;8.18;1.95;;;16.50;68.40;;;;;;4110477;28;20499;-65
2022/01/05 05:23:25;;;;;;;14.30;1.80;;;16.50;68.00;;;;;;4112573;28;20403;-65
2022/01/05 05:25:50;;;;;;;6.43;1.60;;;16.50;67.20;;;;;;4113365;28;20054;-65
2022/01/05 05:28:13;;;;;;;8.88;2.40;;;16.50;67.80;;;;;;4110719;28;20054;-65
2022/01/05 05:30:37;;;;;;;10.95;1.90;;;16.50;68.20;;;;;;4109921;28;20097;-65
2022/01/05 05:33:00;;;;;;;8.07;2.40;;;16.40;68.30;;;;;;4110499;28;20134;-65
2022/01/05 05:35:26;;;;;;;10.13;2.20;;;16.40;68.30;;;;;;4120771;28;20050;-65
2022/01/05 05:37:49;;;;;;;16.48;2.33;;;16.40;68.30;;;;;;4126377;28;20069;-65
2022/01/05 05:40:13;;;;;;;8.13;2.53;;;16.30;69.30;;;;;;4126497;28;20046;-65
2022/01/05 05:42:37;;;;;;;7.60;2.40;;;16.30;68.50;;;;;;4123834;28;20105;-65
2022/01/05 05:45:00;;;;;;;7.57;1.75;;;16.20;68.60;;;;;;4094158;28;20047;-65
2022/01/05 05:47:24;;;;;;;6.10;1.63;;;16.20;68.70;;;;;;4104994;28;21218;-65
2022/01/05 05:49:48;;;;;;;5.80;1.60;;;16.20;68.70;;;;;;4126266;28;20101;-65
2022/01/05 05:52:11;;;;;;;5.68;1.50;;;16.20;68.50;;;;;;4124652;28;20093;-65
2022/01/05 05:54:34;;;;;;;6.72;2.33;;;16.10;69.80;;;;;;4109728;28;20050;-65
2022/01/05 05:56:57;;;;;;;8.55;1.73;;;16.10;69.30;;;;;;4110088;28;20446;-64
2022/01/05 05:59:22;;;;;;;7.25;1.23;;;16.10;69.10;;;;;;4110107;28;20117;-65
2022/01/05 06:01:45;;;;;;;6.97;1.58;;;16.20;69.20;;;;;;4110041;28;20047;-65
2022/01/05 06:04:09;;;;;;;5.78;1.40;;;16.20;68.70;;;;;;4123303;28;20046;-66
2022/01/05 06:06:32;;;;;;;8.95;2.00;;;16.30;68.50;;;;;;4092618;28;20388;-65
2022/01/05 06:08:55;;;;;;;3.92;1.48;;;16.30;68.20;;;;;;4093729;28;20047;-65
2022/01/05 06:11:18;;;;;;;8.48;1.73;;;16.30;68.20;;;;;;4093874;28;20467;-65
2022/01/05 06:13:41;;;;;;;4.45;1.40;;;16.40;68.00;;;;;;4117880;28;20097;-65
2022/01/05 06:16:05;;;;;;;9.75;1.70;;;16.50;67.60;;;;;;4125936;28;20097;-65
2022/01/05 06:18:29;;;;;;;4.97;1.67;;;16.60;67.10;;;;;;4125959;28;20100;-65
2022/01/05 06:20:51;;;;;;;5.90;1.98;;;16.60;67.20;;;;;;4126015;28;20479;-65
2022/01/05 06:23:14;;;;;;;6.53;2.10;;;16.60;67.20;;;;;;4118472;28;20055;-66
2022/01/05 06:25:37;;;;;;;6.50;2.10;;;16.50;67.20;;;;;;4110016;28;20098;-65
2022/01/05 06:28:01;;;;;;;7.78;2.13;;;16.50;67.40;;;;;;4110162;28;20054;-65
2022/01/05 06:30:24;;;;;;;8.27;1.95;;;16.50;67.60;;;;;;4109894;28;20380;-65
2022/01/05 06:32:48;;;;;;;3.83;1.48;;;16.40;68.00;;;;;;4109715;28;20054;-65
2022/01/05 06:35:11;;;;;;;7.03;1.60;;;16.30;68.20;;;;;;4116875;28;20467;-65
2022/01/05 06:37:35;;;;;;;4.82;1.55;;;16.30;68.20;;;;;;4125965;28;20104;-65
2022/01/05 06:39:58;;;;;;;6.47;1.65;;;16.30;68.40;;;;;;4125451;28;20069;-65
2022/01/05 06:42:21;;;;;;;6.55;1.92;;;16.20;68.40;;;;;;4123972;28;20054;-65
2022/01/05 06:44:44;;;;;;;5.05;1.38;;;16.20;68.80;;;;;;4125770;28;20042;-65
2022/01/05 06:47:07;;;;;;;5.70;1.95;;;16.20;68.80;;;;;;4117921;28;20051;-65
2022/01/05 06:49:32;;;;;;;3.20;1.23;;;16.30;68.90;;;;;;4109383;28;20055;-65
2022/01/05 06:51:55;;;;;;;6.10;1.48;;;16.30;68.40;;;;;;4112433;28;20105;-65
2022/01/05 06:54:18;;;;;;;6.50;1.60;;;16.40;68.10;;;;;;4112079;28;20050;-65
2022/01/05 06:56:41;;;;;;;7.60;2.10;;;16.40;68.00;;;;;;4141332;28;20053;-66
2022/01/05 06:59:04;;;;;;;6.00;1.70;;;16.40;67.80;;;;;;4134080;28;20054;-67
2022/01/05 07:01:27;;;;;;;7.45;1.63;;;16.40;67.60;;;;;;4112700;28;20078;-66
2022/01/05 07:03:50;;;;;;;8.63;1.98;;;16.50;67.60;;;;;;4112711;28;20046;-65
2022/01/05 07:06:15;;;;;;;9.18;1.98;;;16.50;67.40;;;;;;4097824;28;20158;-68
2022/01/05 07:08:38;;;;;;;5.95;1.30;;;16.60;67.40;;;;;;4121483;28;20054;-67
2022/01/05 07:11:01;;;;;;;5.93;1.45;;;16.70;67.30;;;;;;4112385;28;20050;-70
2022/01/05 07:13:24;;;;;;;6.43;1.50;;;16.80;66.80;;;;;;4111093;28;20051;-67
2022/01/05 07:15:47;;;;;;;5.50;1.52;;;16.90;66.60;;;;;;4110633;28;20451;-68
2022/01/05 07:18:10;;;;;;;5.93;1.60;;;16.90;66.50;;;;;;4110796;28;20190;-68
2022/01/05 07:20:33;;;;;;;6.72;1.35;;;16.80;66.50;;;;;;4102619;28;20055;-68
2022/01/05 07:22:57;;;;;;;1.88;0.90;;;16.80;66.70;;;;;;4103599;28;20054;-68
2022/01/05 07:25:20;;;;;;;4.95;1.30;;;16.70;66.80;;;;;;4110570;28;20094;-68
2022/01/05 07:27:44;;;;;;;6.97;1.45;;;16.70;67.10;;;;;;4112188;28;20472;-68
2022/01/05 07:30:08;;;;;;;5.80;1.20;;;16.60;67.50;;;;;;4111749;28;20050;-68
2022/01/05 07:32:32;;;;;;;5.10;1.17;;;16.60;67.90;;;;;;4111722;28;20042;-68
2022/01/05 07:34:55;;;;;;;5.57;1.25;;;16.50;68.20;;;;;;4111278;28;20491;-67
2022/01/05 07:37:19;;;;;;;5.00;1.35;;;16.60;68.10;;;;;;4113304;28;20119;-68
2022/01/05 07:39:44;;;;;;;5.55;1.30;;;16.60;68.00;;;;;;4108659;28;20050;-68
2022/01/05 07:42:08;;;;;;;3.92;1.20;;;16.60;68.00;;;;;;4111671;28;20106;-68
2022/01/05 07:44:31;;;;;;;5.78;1.05;;;16.60;68.20;;;;;;4111673;28;20094;-67
2022/01/05 07:46:54;;;;;;;7.28;1.13;;;16.50;68.40;;;;;;4109628;28;20496;-67
2022/01/05 07:49:17;;;;;;;3.67;0.82;;;16.50;68.70;;;;;;4109505;28;20435;-67
2022/01/05 07:51:40;;;;;;;6.32;1.10;;;16.60;68.50;;;;;;4121890;28;20051;-67
2022/01/05 07:54:04;;;;;;;6.47;1.30;;;16.70;68.20;;;;;;4109398;28;20125;-67
2022/01/05 07:56:29;;;;;;;3.50;1.15;;;16.70;67.80;;;;;;4111592;28;20058;-67
2022/01/05 07:58:53;;;;;;;5.70;1.50;;;16.70;67.80;;;;;;4124881;28;20556;-67
2022/01/05 08:01:18;;;;;;;7.43;1.20;;;16.70;67.70;;;;;;4107872;28;20051;-67
2022/01/05 08:03:41;;;;;;;6.30;1.45;;;16.60;67.80;;;;;;4109438;28;20047;-67
2022/01/05 08:06:17;;;;;;;4.68;1.10;;;16.60;68.10;;;;;;4111202;28;20050;-67
2022/01/05 08:08:40;;;;;;;6.45;1.80;;;16.50;69.40;;;;;;4109224;28;20101;-69
2022/01/05 08:11:03;;;;;;;5.47;1.20;;;16.50;68.80;;;;;;4109246;28;20047;-71
2022/01/05 08:13:28;;;;;;;3.55;1.35;;;16.50;69.10;;;;;;4110152;28;20557;-69
2022/01/05 08:15:51;;;;;;;8.20;1.20;;;16.50;69.10;;;;;;4107099;28;20050;-72
2022/01/05 08:18:14;;;;;;;8.35;1.40;;;16.40;69.20;;;;;;4109156;28;20909;-70
2022/01/05 08:20:37;;;;;;;4.90;0.90;;;16.40;69.30;;;;;;4109072;28;20514;-71
2022/01/05 08:23:00;;;;;;;5.05;1.90;;;16.30;69.60;;;;;;4107984;28;20144;-71
2022/01/05 08:25:23;;;;;;;6.30;1.27;;;16.30;69.90;;;;;;4109355;28;20452;-73
2022/01/05 08:27:47;;;;;;;5.70;1.08;;;16.30;70.20;;;;;;4110452;28;20054;-71
2022/01/05 08:30:13;;;;;;;6.72;1.20;;;16.30;70.20;;;;;;4113293;28;20613;-71
2022/01/05 08:32:36;;;;;;;1.67;0.75;;;16.30;70.00;;;;;;4123071;28;20050;-71
2022/01/05 08:34:59;;;;;;;4.85;1.00;;;16.30;70.00;;;;;;4124152;28;20050;-73
2022/01/05 08:37:23;;;;;;;5.30;1.00;;;16.30;70.00;;;;;;4124438;28;20103;-71
2022/01/05 08:39:49;;;;;;;4.22;1.20;;;16.30;70.10;;;;;;4109024;28;20052;-71
2022/01/05 08:42:12;;;;;;;2.75;1.10;;;16.30;70.10;;;;;;4108482;28;20428;-70
2022/01/05 08:44:35;;;;;;;7.20;1.83;;;16.30;71.00;;;;;;4108895;28;20476;-70
2022/01/05 08:47:00;;;;;;;1.70;0.70;;;16.30;70.00;;;;;;4109001;28;20054;-70
2022/01/05 08:49:23;;;;;;;4.13;1.10;;;16.30;70.00;;;;;;4108810;28;20097;-70
2022/01/05 08:51:46;;;;;;;6.75;1.50;;;16.20;70.20;;;;;;4113463;28;20109;-71
2022/01/05 08:54:09;;;;;;;5.15;1.65;;;16.20;70.60;;;;;;4123960;28;20047;-73
2022/01/05 08:56:32;;;;;;;4.10;0.95;;;16.20;70.90;;;;;;4118891;28;20096;-72
2022/01/05 08:58:56;;;;;;;7.43;1.90;;;16.10;70.90;;;;;;4108243;28;20112;-69
2022/01/05 09:01:20;;;;;;;5.82;1.63;;;16.10;70.90;;;;;;4119990;28;20046;-73
2022/01/05 09:03:44;;;;;;;4.70;1.48;;;16.10;71.10;;;;;;4122400;28;20471;-72
2022/01/05 09:06:07;;;;;;;8.77;1.75;;;16.00;71.10;;;;;;4113282;28;20474;-69
2022/01/05 09:08:30;;;;;;;9.77;2.42;;;15.90;71.50;;;;;;4123796;28;20046;-71
2022/01/05 09:10:53;;;;;;;10.18;1.42;;;15.90;71.60;;;;;;4108343;28;20054;-71
2022/01/05 09:13:17;;;;;;;9.18;1.75;;;15.80;71.70;;;;;;4114690;28;20108;-71
2022/01/05 09:15:41;;;;;;;10.32;2.15;;;15.70;72.10;;;;;;4108405;28;20105;-71
2022/01/05 09:18:04;;;;;;;10.57;2.60;;;15.70;72.50;;;;;;4108573;28;20454;-72
2022/01/05 09:20:28;;;;;;;9.98;1.88;;;15.70;72.80;;;;;;4120349;28;20050;-71
2022/01/05 09:22:52;;;;;;;6.22;1.67;;;15.70;72.40;;;;;;4107736;28;20050;-71
2022/01/05 09:25:18;;;;;;;10.63;1.77;;;15.80;73.40;;;;;;4122173;28;20058;-70
2022/01/05 09:27:41;;;;;;;8.35;1.45;;;15.80;72.20;;;;;;4122873;28;20651;-70
2022/01/05 09:30:06;;;;;;;6.30;1.45;;;15.90;72.00;;;;;;4123436;28;20108;-69
2022/01/05 09:32:29;;;;;;;8.25;1.90;;;16.00;72.30;;;;;;4106536;28;20102;-70
2022/01/05 09:34:52;;;;;;;7.63;1.38;;;16.10;70.90;;;;;;4108015;28;21093;-69
2022/01/05 09:37:22;;;;;;;9.77;2.25;;;16.20;70.60;;;;;;4117627;28;20117;-69
2022/01/05 09:42:26;;;;;;;7.73;1.53;;;16.20;70.30;;;;;;4107514;28;20050;-70
2022/01/05 09:44:50;;;;;;;10.25;1.92;;;16.10;70.40;;;;;;4108193;28;20453;-69
2022/01/05 09:47:52;;;;;;;6.63;2.17;;;16.10;70.60;;;;;;4107766;28;20054;-69
2022/01/05 09:50:16;;;;;;;10.00;2.00;;;16.00;70.90;;;;;;4107017;28;20625;-66
2022/01/05 09:52:42;;;;;;;15.77;1.73;;;15.90;71.50;;;;;;4111166;28;20069;-69
2022/01/05 09:55:07;;;;;;;12.25;2.10;;;15.90;71.90;;;;;;4107717;28;20047;-69
2022/01/05 09:57:31;;;;;;;10.40;1.95;;;15.80;72.40;;;;;;4107754;28;20105;-67
2022/01/05 09:59:56;;;;;;;14.18;1.92;;;15.80;72.80;;;;;;4107825;28;20479;-68
2022/01/05 10:02:20;;;;;;;16.60;2.70;;;15.70;73.10;;;;;;4107073;28;20054;-67
2022/01/05 10:04:44;;;;;;;11.27;2.05;;;15.60;73.30;;;;;;4107294;28;20494;-69
2022/01/05 10:07:09;;;;;;;13.80;2.50;;;15.60;73.70;;;;;;4107690;28;20070;-68
2022/01/05 10:09:33;;;;;;;10.02;2.15;;;15.60;73.80;;;;;;4120228;28;20422;-68
2022/01/05 10:11:57;;;;;;;13.07;2.17;;;15.60;73.80;;;;;;4114038;28;20058;-68
2022/01/05 10:14:20;;;;;;;16.40;2.30;;;15.70;73.60;;;;;;4119639;28;20895;-68
2022/01/05 10:17:00;;;;;;;13.52;2.55;;;15.70;73.40;;;;;;4117647;28;20047;-69
2022/01/05 10:19:23;;;;;;;6.85;1.92;;;15.80;72.90;;;;;;4107032;28;20047;-69
2022/01/05 10:21:46;;;;;;;10.10;2.03;;;15.90;72.20;;;;;;4107530;28;20051;-68
2022/01/05 10:24:09;;;;;;;9.05;1.98;;;16.00;71.90;;;;;;4116084;28;20479;-67
2022/01/05 10:26:36;;;;;;;14.13;2.50;;;16.10;71.60;;;;;;4126239;28;20045;-68
2022/01/05 10:29:02;;;;;;;14.35;3.13;;;16.00;71.20;;;;;;4124832;28;20136;-70
2022/01/05 10:31:27;;;;;;;7.80;1.63;;;16.00;71.30;;;;;;4120729;28;20046;-71
2022/01/05 10:33:51;;;;;;;12.18;2.22;;;16.00;71.40;;;;;;4110821;28;20110;-68
2022/01/05 10:36:14;;;;;;;11.32;2.67;;;15.90;71.70;;;;;;4110909;28;20046;-68
2022/01/05 10:38:37;;;;;;;15.40;2.25;;;15.90;71.90;;;;;;4112067;28;20063;-65
2022/01/05 10:41:15;;;;;;;12.27;2.17;;;15.90;72.10;;;;;;4125851;28;20050;-68
2022/01/05 10:43:57;;;;;;;19.25;2.78;;;15.80;72.10;;;;;;4112268;28;20042;-70
2022/01/05 10:46:33;;;;;;;12.23;2.05;;;15.70;72.30;;;;;;4125422;28;20050;-68
2022/01/05 10:48:56;;;;;;;19.27;3.25;;;15.70;72.50;;;;;;4109622;28;20482;-68
2022/01/05 10:51:30;;;;;;;14.00;1.92;;;15.70;72.90;;;;;;4110380;28;20050;-68
2022/01/05 10:54:14;;;;;;;12.15;2.88;;;15.70;73.50;;;;;;4110400;28;20051;-70
2022/01/05 10:56:36;;;;;;;10.57;2.60;;;15.60;73.70;;;;;;4109319;28;20495;-70
2022/01/05 10:59:02;;;;;;;11.35;2.30;;;15.60;74.80;;;;;;4110427;28;20094;-67
2022/01/05 11:01:28;;;;;;;11.85;2.75;;;15.60;75.10;;;;;;4110134;28;20050;-67
2022/01/05 11:03:51;;;;;;;18.83;3.00;;;15.60;75.20;;;;;;4110578;28;20062;-67
2022/01/05 11:06:16;;;;;;;14.63;2.67;;;15.60;75.20;;;;;;4110157;28;20051;-67
2022/01/05 11:08:51;;;;;;;19.88;3.03;;;15.70;75.20;;;;;;4122383;28;20042;-67
2022/01/05 11:11:35;;;;;;;12.73;2.28;;;15.70;75.10;;;;;;4125132;28;20054;-70
2022/01/05 11:13:58;;;;;;;16.20;3.28;;;15.70;74.70;;;;;;4124253;28;20038;-68
2022/01/05 11:16:28;;;;;;;15.35;2.55;;;15.80;74.30;;;;;;4125490;28;20046;-68
2022/01/05 11:18:51;;;;;;;16.15;3.65;;;15.90;73.60;;;;;;4125094;28;20104;-67
2022/01/05 11:21:16;;;;;;;15.65;2.97;;;16.00;73.20;;;;;;4116479;28;20475;-68
2022/01/05 11:23:39;;;;;;;14.45;3.75;;;16.00;73.10;;;;;;4110053;28;20098;-67
2022/01/05 11:26:03;;;;;;;22.67;3.05;;;16.00;73.00;;;;;;4109731;28;20472;-68
2022/01/05 11:28:28;;;;;;;15.90;3.00;;;16.00;73.00;;;;;;4110270;28;20051;-68
2022/01/05 11:30:53;;;;;;;17.90;2.63;;;15.90;73.00;;;;;;4109636;28;20360;-67
2022/01/05 11:33:18;;;;;;;10.32;2.90;;;15.90;73.30;;;;;;4109745;28;20062;-68
2022/01/05 11:35:42;;;;;;;13.38;3.05;;;15.80;73.40;;;;;;4108835;28;20055;-68
2022/01/05 11:38:06;;;;;;;21.88;2.90;;;15.90;73.40;;;;;;4109573;28;20424;-67
2022/01/05 11:40:30;;;;;;;12.80;2.42;;;15.80;73.20;;;;;;4108945;28;20162;-67
2022/01/05 11:43:00;;;;;;;14.57;2.70;;;15.80;74.30;;;;;;4109043;28;20051;-67
2022/01/05 11:45:32;;;;;;;22.48;3.92;;;15.80;73.40;;;;;;4119105;28;20050;-67
2022/01/05 11:48:12;;;;;;;17.05;3.55;;;15.80;73.40;;;;;;4109564;28;20503;-67
2022/01/05 11:50:44;;;;;;;20.38;3.20;;;15.80;72.70;;;;;;4108803;28;20043;-68
2022/01/05 11:53:08;;;;;;;14.45;2.67;;;15.70;73.40;;;;;;4123037;28;20097;-67
2022/01/05 11:55:34;;;;;;;12.48;2.88;;;15.70;74.10;;;;;;4114998;28;20208;-67
2022/01/05 11:58:25;;;;;;;12.25;2.45;;;15.70;73.80;;;;;;4121967;28;20113;-67
2022/01/05 12:01:09;;;;;;;18.63;2.58;;;15.80;73.60;;;;;;4118919;28;20136;-67
2022/01/05 12:04:14;;;;;;;13.88;3.30;;;15.90;73.20;;;;;;4123697;28;20100;-67
2022/01/05 12:07:09;;;;;;;21.92;3.60;;;15.90;72.20;;;;;;4115347;28;20050;-67
2022/01/05 12:09:34;;;;;;;10.63;2.72;;;15.90;72.70;;;;;;4123690;28;20114;-67
2022/01/05 12:12:02;;;;;;;16.00;2.92;;;15.90;72.90;;;;;;4110178;28;20051;-67
2022/01/05 12:14:47;;;;;;;17.10;2.70;;;15.80;73.00;;;;;;4108581;28;20376;-67
2022/01/05 12:17:14;;;;;;;19.63;3.00;;;15.80;71.60;;;;;;4108183;28;20058;-67
2022/01/05 12:20:10;;;;;;;13.18;2.45;;;15.90;72.70;;;;;;4111644;28;20822;-67
2022/01/05 12:22:35;;;;;;;11.48;2.10;;;15.90;72.30;;;;;;4123160;28;20046;-68
2022/01/05 12:25:20;;;;;;;13.27;2.67;;;15.90;72.40;;;;;;4123139;28;20124;-68
2022/01/05 12:27:57;;;;;;;13.88;3.13;;;15.90;72.00;;;;;;4121572;28;20051;-72
2022/01/05 12:30:40;;;;;;;17.50;2.40;;;15.90;72.10;;;;;;4113905;28;20046;-67
2022/01/05 12:33:05;;;;;;;10.82;2.30;;;15.90;71.80;;;;;;4114430;28;20051;-67
2022/01/05 12:35:28;;;;;;;6.55;2.33;;;15.90;72.20;;;;;;4112619;28;20642;-67